sensor_id;sensor_type;location;lat;lon;timestamp;pressure;altitude;pressure_sealevel;temperature;humidity
62942;BME280;49042;47.318;19.874;2023-02-28T00:02:04;101560.78;;;-0.72;62.31
62942;BME280;49042;47.318;19.874;2023-02-28T00:05:07;101550.94;;;-0.59;61.86
62942;BME280;49042;47.318;19.874;2023-02-28T00:08:09;101554.72;;;-0.55;62.01
62942;BME280;49042;47.318;19.874;2023-02-28T00:11:13;101556.16;;;-0.39;60.81
62942;BME280;49042;47.318;19.874;2023-02-28T00:14:15;101564.31;;;-0.44;59.92
62942;BME280;49042;47.318;19.874;2023-02-28T00:17:17;101573.78;;;-0.71;60.58
62942;BME280;49042;47.318;19.874;2023-02-28T00:20:23;101566.94;;;-0.61;60.57
62942;BME280;49042;47.318;19.874;2023-02-28T00:23:25;101571.50;;;-0.77;60.33
62942;BME280;49042;47.318;19.874;2023-02-28T00:26:27;101581.53;;;-1.06;61.17
62942;BME280;49042;47.318;19.874;2023-02-28T00:29:29;101577.62;;;-1.38;63.74
62942;BME280;49042;47.318;19.874;2023-02-28T00:32:31;101581.22;;;-1.19;63.63
62942;BME280;49042;47.318;19.874;2023-02-28T00:35:32;101584.19;;;-0.87;62.35
62942;BME280;49042;47.318;19.874;2023-02-28T00:38:34;101590.28;;;-1.31;64.25
62942;BME280;49042;47.318;19.874;2023-02-28T00:41:36;101587.25;;;-1.63;66.20
62942;BME280;49042;47.318;19.874;2023-02-28T00:44:38;101585.56;;;-1.71;66.72
62942;BME280;49042;47.318;19.874;2023-02-28T00:47:39;101589.97;;;-1.25;65.09
62942;BME280;49042;47.318;19.874;2023-02-28T00:50:41;101595.84;;;-1.35;65.55
62942;BME280;49042;47.318;19.874;2023-02-28T00:53:43;101584.38;;;-1.48;66.16
62942;BME280;49042;47.318;19.874;2023-02-28T00:56:44;101590.88;;;-1.43;66.86
62942;BME280;49042;47.318;19.874;2023-02-28T00:59:47;101588.91;;;-1.19;65.85
62942;BME280;49042;47.318;19.874;2023-02-28T01:02:49;101589.91;;;-0.72;64.11
62942;BME280;49042;47.318;19.874;2023-02-28T01:05:51;101589.78;;;-1.27;66.09
62942;BME280;49042;47.318;19.874;2023-02-28T01:08:54;101591.31;;;-1.29;66.53
62942;BME280;49042;47.318;19.874;2023-02-28T01:11:56;101589.34;;;-1.67;68.47
62942;BME280;49042;47.318;19.874;2023-02-28T01:14:57;101581.81;;;-1.66;69.43
62942;BME280;49042;47.318;19.874;2023-02-28T01:17:59;101586.78;;;-1.58;68.48
62942;BME280;49042;47.318;19.874;2023-02-28T01:21:04;101583.75;;;-1.72;69.38
62942;BME280;49042;47.318;19.874;2023-02-28T01:24:06;101586.91;;;-1.75;70.38
62942;BME280;49042;47.318;19.874;2023-02-28T01:27:08;101583.00;;;-1.71;70.44
62942;BME280;49042;47.318;19.874;2023-02-28T01:30:10;101596.72;;;-1.70;70.40
62942;BME280;49042;47.318;19.874;2023-02-28T01:33:12;101585.13;;;-1.58;69.56
62942;BME280;49042;47.318;19.874;2023-02-28T01:36:17;101585.28;;;-1.12;67.93
62942;BME280;49042;47.318;19.874;2023-02-28T01:39:19;101596.00;;;-1.43;69.06
62942;BME280;49042;47.318;19.874;2023-02-28T01:42:21;101597.03;;;-1.32;68.52
62942;BME280;49042;47.318;19.874;2023-02-28T01:45:30;101591.00;;;-1.41;69.04
62942;BME280;49042;47.318;19.874;2023-02-28T01:48:35;101591.75;;;-1.15;68.42
62942;BME280;49042;47.318;19.874;2023-02-28T01:51:48;101589.19;;;-1.15;67.91
62942;BME280;49042;47.318;19.874;2023-02-28T01:54:56;101600.97;;;-1.17;68.38
62942;BME280;49042;47.318;19.874;2023-02-28T01:58:02;101601.09;;;-1.34;69.40
62942;BME280;49042;47.318;19.874;2023-02-28T02:01:04;101593.37;;;-1.69;70.50
62942;BME280;49042;47.318;19.874;2023-02-28T02:04:06;101600.78;;;-1.64;70.91
62942;BME280;49042;47.318;19.874;2023-02-28T02:07:08;101602.59;;;-1.54;71.13
62942;BME280;49042;47.318;19.874;2023-02-28T02:10:20;101595.84;;;-1.53;70.54
62942;BME280;49042;47.318;19.874;2023-02-28T02:36:06;101593.97;;;-0.92;69.15
62942;BME280;49042;47.318;19.874;2023-02-28T02:39:17;101587.69;;;-1.04;69.09
62942;BME280;49042;47.318;19.874;2023-02-28T02:42:27;101588.81;;;-0.74;68.50
62942;BME280;49042;47.318;19.874;2023-02-28T02:45:34;101589.91;;;-0.72;67.89
62942;BME280;49042;47.318;19.874;2023-02-28T02:48:38;101592.63;;;-0.79;67.91
62942;BME280;49042;47.318;19.874;2023-02-28T02:51:42;101587.75;;;-0.58;67.87
62942;BME280;49042;47.318;19.874;2023-02-28T02:54:46;101587.47;;;-0.70;67.19
62942;BME280;49042;47.318;19.874;2023-02-28T02:57:54;101586.59;;;-0.71;68.00
62942;BME280;49042;47.318;19.874;2023-02-28T03:01:00;101590.25;;;-0.95;68.73
62942;BME280;49042;47.318;19.874;2023-02-28T03:04:09;101595.34;;;-0.87;68.79
62942;BME280;49042;47.318;19.874;2023-02-28T03:07:12;101589.94;;;-1.16;70.28
62942;BME280;49042;47.318;19.874;2023-02-28T03:10:50;101585.25;;;-0.94;69.29
62942;BME280;49042;47.318;19.874;2023-02-28T03:17:13;101581.94;;;-0.38;67.62
62942;BME280;49042;47.318;19.874;2023-02-28T03:23:57;101567.47;;;-0.09;66.24
62942;BME280;49042;47.318;19.874;2023-02-28T03:27:10;101564.59;;;-0.40;66.99
62942;BME280;49042;47.318;19.874;2023-02-28T03:33:45;101582.81;;;-0.28;66.75
62942;BME280;49042;47.318;19.874;2023-02-28T03:37:01;101592.47;;;-0.35;65.58
62942;BME280;49042;47.318;19.874;2023-02-28T03:40:11;101597.00;;;-0.32;66.07
62942;BME280;49042;47.318;19.874;2023-02-28T03:43:23;101596.34;;;0.08;63.88
62942;BME280;49042;47.318;19.874;2023-02-28T03:46:30;101586.56;;;0.04;63.75
62942;BME280;49042;47.318;19.874;2023-02-28T03:49:47;101581.47;;;-0.05;62.41
62942;BME280;49042;47.318;19.874;2023-02-28T03:53:02;101578.16;;;-0.04;62.44
62942;BME280;49042;47.318;19.874;2023-02-28T03:56:11;101573.16;;;-0.03;61.74
62942;BME280;49042;47.318;19.874;2023-02-28T03:59:19;101571.59;;;-0.20;62.35
62942;BME280;49042;47.318;19.874;2023-02-28T04:02:23;101570.31;;;-0.34;62.35
62942;BME280;49042;47.318;19.874;2023-02-28T04:05:25;101576.72;;;-0.20;61.81
62942;BME280;49042;47.318;19.874;2023-02-28T04:08:28;101573.41;;;-0.19;61.80
62942;BME280;49042;47.318;19.874;2023-02-28T04:11:39;101574.22;;;-0.29;61.47
62942;BME280;49042;47.318;19.874;2023-02-28T04:14:41;101571.84;;;-0.08;60.60
62942;BME280;49042;47.318;19.874;2023-02-28T04:17:43;101573.03;;;-0.33;60.15
62942;BME280;49042;47.318;19.874;2023-02-28T04:20:45;101566.13;;;-0.42;60.73
62942;BME280;49042;47.318;19.874;2023-02-28T04:23:47;101568.38;;;-0.37;60.34
62942;BME280;49042;47.318;19.874;2023-02-28T04:26:53;101570.44;;;-0.70;61.04
62942;BME280;49042;47.318;19.874;2023-02-28T04:29:55;101573.56;;;-0.55;60.95
62942;BME280;49042;47.318;19.874;2023-02-28T04:32:57;101563.13;;;-0.47;61.08
62942;BME280;49042;47.318;19.874;2023-02-28T04:36:04;101563.84;;;-0.39;60.87
62942;BME280;49042;47.318;19.874;2023-02-28T04:39:06;101568.38;;;-0.46;61.66
62942;BME280;49042;47.318;19.874;2023-02-28T04:42:08;101576.63;;;-0.68;62.33
62942;BME280;49042;47.318;19.874;2023-02-28T04:45:10;101568.19;;;-0.84;62.55
62942;BME280;49042;47.318;19.874;2023-02-28T04:48:12;101564.94;;;-0.46;61.99
62942;BME280;49042;47.318;19.874;2023-02-28T04:51:15;101563.19;;;-0.65;62.32
62942;BME280;49042;47.318;19.874;2023-02-28T04:54:18;101568.28;;;-0.56;62.04
62942;BME280;49042;47.318;19.874;2023-02-28T04:57:19;101553.62;;;-0.48;62.11
62942;BME280;49042;47.318;19.874;2023-02-28T05:00:21;101555.84;;;-0.71;62.80
62942;BME280;49042;47.318;19.874;2023-02-28T05:03:23;101563.53;;;-0.80;62.37
62942;BME280;49042;47.318;19.874;2023-02-28T05:06:27;101566.00;;;-0.53;62.01
62942;BME280;49042;47.318;19.874;2023-02-28T05:09:29;101565.13;;;-0.62;62.98
62942;BME280;49042;47.318;19.874;2023-02-28T05:12:31;101555.22;;;-0.68;63.56
62942;BME280;49042;47.318;19.874;2023-02-28T05:15:33;101562.50;;;-0.91;65.01
62942;BME280;49042;47.318;19.874;2023-02-28T05:18:36;101557.50;;;-0.80;65.44
62942;BME280;49042;47.318;19.874;2023-02-28T05:21:49;101551.97;;;-0.94;66.96
62942;BME280;49042;47.318;19.874;2023-02-28T05:24:51;101548.19;;;-0.98;67.83
62942;BME280;49042;47.318;19.874;2023-02-28T05:27:53;101550.16;;;-0.95;68.57
62942;BME280;49042;47.318;19.874;2023-02-28T05:30:55;101558.59;;;-0.96;69.46
62942;BME280;49042;47.318;19.874;2023-02-28T05:33:56;101551.00;;;-0.68;69.12
62942;BME280;49042;47.318;19.874;2023-02-28T05:36:58;101556.03;;;-0.96;70.58
62942;BME280;49042;47.318;19.874;2023-02-28T05:40:00;101562.91;;;-0.77;70.89
62942;BME280;49042;47.318;19.874;2023-02-28T05:43:02;101569.97;;;-0.66;70.81
62942;BME280;49042;47.318;19.874;2023-02-28T05:46:09;101570.00;;;-0.74;71.63
62942;BME280;49042;47.318;19.874;2023-02-28T05:49:12;101573.94;;;-0.87;72.72
62942;BME280;49042;47.318;19.874;2023-02-28T05:52:14;101571.50;;;-0.68;72.78
62942;BME280;49042;47.318;19.874;2023-02-28T05:55:16;101578.84;;;-0.62;72.83
62942;BME280;49042;47.318;19.874;2023-02-28T05:58:17;101587.84;;;-0.48;72.09
62942;BME280;49042;47.318;19.874;2023-02-28T06:01:30;101578.78;;;-0.44;72.55
62942;BME280;49042;47.318;19.874;2023-02-28T06:04:32;101588.44;;;-0.41;72.34
62942;BME280;49042;47.318;19.874;2023-02-28T06:07:33;101591.50;;;-0.63;73.33
62942;BME280;49042;47.318;19.874;2023-02-28T06:10:35;101596.34;;;-0.67;74.14
62942;BME280;49042;47.318;19.874;2023-02-28T06:13:38;101599.34;;;-0.62;74.22
62942;BME280;49042;47.318;19.874;2023-02-28T06:16:39;101596.50;;;-0.65;74.58
62942;BME280;49042;47.318;19.874;2023-02-28T06:19:41;101597.25;;;-0.57;74.13
62942;BME280;49042;47.318;19.874;2023-02-28T06:22:43;101606.72;;;-0.56;73.85
62942;BME280;49042;47.318;19.874;2023-02-28T06:25:45;101600.03;;;-0.36;73.18
62942;BME280;49042;47.318;19.874;2023-02-28T06:28:47;101604.06;;;-0.29;72.85
62942;BME280;49042;47.318;19.874;2023-02-28T06:31:49;101616.78;;;-0.40;72.87
62942;BME280;49042;47.318;19.874;2023-02-28T06:34:51;101617.34;;;-0.34;72.90
62942;BME280;49042;47.318;19.874;2023-02-28T06:37:53;101621.97;;;-0.12;71.97
62942;BME280;49042;47.318;19.874;2023-02-28T06:40:56;101624.47;;;-0.03;71.23
62942;BME280;49042;47.318;19.874;2023-02-28T06:43:57;101620.00;;;-0.14;71.04
62942;BME280;49042;47.318;19.874;2023-02-28T06:46:59;101621.59;;;0.03;71.11
62942;BME280;49042;47.318;19.874;2023-02-28T06:50:01;101624.06;;;-0.16;71.00
62942;BME280;49042;47.318;19.874;2023-02-28T06:53:03;101616.37;;;-0.16;71.38
62942;BME280;49042;47.318;19.874;2023-02-28T06:56:06;101625.91;;;0.13;70.73
62942;BME280;49042;47.318;19.874;2023-02-28T06:59:08;101621.78;;;0.44;69.38
62942;BME280;49042;47.318;19.874;2023-02-28T07:02:10;101626.25;;;0.55;68.74
62942;BME280;49042;47.318;19.874;2023-02-28T07:05:11;101627.00;;;0.54;67.76
62942;BME280;49042;47.318;19.874;2023-02-28T07:08:13;101618.94;;;0.40;68.97
62942;BME280;49042;47.318;19.874;2023-02-28T07:11:15;101617.44;;;0.62;68.34
62942;BME280;49042;47.318;19.874;2023-02-28T07:14:17;101624.47;;;0.73;68.13
62942;BME280;49042;47.318;19.874;2023-02-28T07:17:18;101621.69;;;0.81;66.87
62942;BME280;49042;47.318;19.874;2023-02-28T07:20:20;101622.88;;;0.84;67.04
62942;BME280;49042;47.318;19.874;2023-02-28T07:23:22;101620.91;;;1.01;65.70
62942;BME280;49042;47.318;19.874;2023-02-28T07:26:23;101625.94;;;1.10;65.36
62942;BME280;49042;47.318;19.874;2023-02-28T07:29:26;101623.94;;;1.16;64.50
62942;BME280;49042;47.318;19.874;2023-02-28T07:32:28;101630.13;;;0.99;64.45
62942;BME280;49042;47.318;19.874;2023-02-28T07:35:30;101637.09;;;1.30;64.27
62942;BME280;49042;47.318;19.874;2023-02-28T07:38:36;101632.31;;;1.24;64.02
62942;BME280;49042;47.318;19.874;2023-02-28T07:41:38;101630.63;;;0.95;64.77
62942;BME280;49042;47.318;19.874;2023-02-28T07:44:44;101631.41;;;1.24;63.63
62942;BME280;49042;47.318;19.874;2023-02-28T07:47:46;101633.00;;;1.32;62.98
62942;BME280;49042;47.318;19.874;2023-02-28T07:50:58;101636.13;;;1.49;62.97
62942;BME280;49042;47.318;19.874;2023-02-28T07:54:00;101634.59;;;1.21;62.99
62942;BME280;49042;47.318;19.874;2023-02-28T07:57:02;101640.03;;;1.54;61.24
62942;BME280;49042;47.318;19.874;2023-02-28T08:00:05;101641.59;;;1.33;60.56
62942;BME280;49042;47.318;19.874;2023-02-28T08:03:11;101642.16;;;1.09;61.40
62942;BME280;49042;47.318;19.874;2023-02-28T08:06:19;101645.53;;;1.19;60.51
62942;BME280;49042;47.318;19.874;2023-02-28T08:09:21;101646.84;;;1.54;59.61
62942;BME280;49042;47.318;19.874;2023-02-28T08:12:23;101659.00;;;1.16;60.71
62942;BME280;49042;47.318;19.874;2023-02-28T08:15:25;101652.91;;;1.65;59.49
62942;BME280;49042;47.318;19.874;2023-02-28T08:18:27;101653.28;;;1.59;59.02
62942;BME280;49042;47.318;19.874;2023-02-28T08:21:29;101654.00;;;1.17;60.76
62942;BME280;49042;47.318;19.874;2023-02-28T08:24:31;101653.06;;;1.36;60.91
62942;BME280;49042;47.318;19.874;2023-02-28T08:27:33;101660.03;;;1.78;58.55
62942;BME280;49042;47.318;19.874;2023-02-28T08:30:34;101664.94;;;1.45;60.10
62942;BME280;49042;47.318;19.874;2023-02-28T08:33:37;101655.44;;;1.54;60.09
62942;BME280;49042;47.318;19.874;2023-02-28T08:36:41;101645.53;;;1.99;59.25
62942;BME280;49042;47.318;19.874;2023-02-28T08:39:43;101657.28;;;2.17;57.44
62942;BME280;49042;47.318;19.874;2023-02-28T08:42:45;101657.22;;;1.85;58.21
62942;BME280;49042;47.318;19.874;2023-02-28T08:45:47;101663.72;;;2.11;57.63
62942;BME280;49042;47.318;19.874;2023-02-28T08:48:52;101652.56;;;3.50;58.30
62942;BME280;49042;47.318;19.874;2023-02-28T08:51:55;101649.28;;;3.86;61.30
62942;BME280;49042;47.318;19.874;2023-02-28T08:54:58;101653.91;;;4.47;51.69
62942;BME280;49042;47.318;19.874;2023-02-28T08:58:00;101645.78;;;4.31;50.81
62942;BME280;49042;47.318;19.874;2023-02-28T09:04:10;101653.41;;;2.95;54.73
62942;BME280;49042;47.318;19.874;2023-02-28T09:07:17;101660.13;;;2.41;55.80
62942;BME280;49042;47.318;19.874;2023-02-28T09:10:19;101658.97;;;2.69;57.22
62942;BME280;49042;47.318;19.874;2023-02-28T09:13:21;101655.88;;;2.62;56.84
62942;BME280;49042;47.318;19.874;2023-02-28T09:16:22;101667.22;;;2.43;56.83
62942;BME280;49042;47.318;19.874;2023-02-28T09:19:24;101655.88;;;2.62;56.50
62942;BME280;49042;47.318;19.874;2023-02-28T09:22:26;101652.53;;;2.63;57.04
62942;BME280;49042;47.318;19.874;2023-02-28T09:25:27;101657.06;;;3.20;56.56
62942;BME280;49042;47.318;19.874;2023-02-28T09:28:29;101659.06;;;2.91;55.63
62942;BME280;49042;47.318;19.874;2023-02-28T09:31:31;101657.75;;;3.40;54.88
62942;BME280;49042;47.318;19.874;2023-02-28T09:34:33;101654.97;;;3.26;54.53
62942;BME280;49042;47.318;19.874;2023-02-28T09:37:34;101652.38;;;3.37;54.78
62942;BME280;49042;47.318;19.874;2023-02-28T09:40:39;101650.59;;;3.58;54.96
62942;BME280;49042;47.318;19.874;2023-02-28T09:43:53;101654.91;;;4.03;52.50
62942;BME280;49042;47.318;19.874;2023-02-28T09:47:01;101651.75;;;3.62;54.04
62942;BME280;49042;47.318;19.874;2023-02-28T09:50:40;101647.25;;;4.04;53.03
62942;BME280;49042;47.318;19.874;2023-02-28T09:53:43;101645.88;;;4.20;52.10
62942;BME280;49042;47.318;19.874;2023-02-28T09:56:55;101643.53;;;4.70;51.90
62942;BME280;49042;47.318;19.874;2023-02-28T10:03:40;101642.31;;;6.13;47.57
62942;BME280;49042;47.318;19.874;2023-02-28T10:06:49;101647.66;;;6.67;46.40
62942;BME280;49042;47.318;19.874;2023-02-28T10:09:55;101644.00;;;6.38;46.51
62942;BME280;49042;47.318;19.874;2023-02-28T10:12:59;101654.56;;;6.15;47.64
62942;BME280;49042;47.318;19.874;2023-02-28T10:16:11;101637.81;;;6.89;46.44
62942;BME280;49042;47.318;19.874;2023-02-28T10:25:43;101652.44;;;5.72;48.25
62942;BME280;49042;47.318;19.874;2023-02-28T10:28:51;101656.00;;;5.00;49.99
62942;BME280;49042;47.318;19.874;2023-02-28T10:31:54;101654.09;;;4.85;50.95
62942;BME280;49042;47.318;19.874;2023-02-28T10:35:22;101643.69;;;4.49;52.75
62942;BME280;49042;47.318;19.874;2023-02-28T10:38:25;101640.25;;;4.85;51.90
62942;BME280;49042;47.318;19.874;2023-02-28T10:41:30;101624.66;;;4.83;52.60
62942;BME280;49042;47.318;19.874;2023-02-28T10:44:37;101626.63;;;5.23;50.99
62942;BME280;49042;47.318;19.874;2023-02-28T10:53:52;101616.44;;;5.63;50.53
62942;BME280;49042;47.318;19.874;2023-02-28T11:00:23;101612.53;;;6.19;54.87
62942;BME280;49042;47.318;19.874;2023-02-28T11:03:35;101603.37;;;5.99;54.13
62942;BME280;49042;47.318;19.874;2023-02-28T11:06:37;101602.19;;;6.19;51.08
62942;BME280;49042;47.318;19.874;2023-02-28T11:09:40;101604.88;;;6.88;47.68
62942;BME280;49042;47.318;19.874;2023-02-28T11:12:42;101597.16;;;7.73;50.48
62942;BME280;49042;47.318;19.874;2023-02-28T11:15:58;101600.78;;;7.05;47.09
62942;BME280;49042;47.318;19.874;2023-02-28T11:19:03;101589.97;;;7.68;48.26
62942;BME280;49042;47.318;19.874;2023-02-28T11:22:06;101601.06;;;7.23;46.74
62942;BME280;49042;47.318;19.874;2023-02-28T11:25:21;101602.66;;;6.39;48.60
62942;BME280;49042;47.318;19.874;2023-02-28T11:28:27;101596.81;;;6.30;49.48
62942;BME280;49042;47.318;19.874;2023-02-28T11:31:29;101591.22;;;6.63;48.57
62942;BME280;49042;47.318;19.874;2023-02-28T11:34:34;101600.47;;;6.73;48.43
62942;BME280;49042;47.318;19.874;2023-02-28T11:37:37;101602.25;;;5.70;51.14
62942;BME280;49042;47.318;19.874;2023-02-28T11:40:48;101606.41;;;6.31;49.75
62942;BME280;49042;47.318;19.874;2023-02-28T11:44:03;101593.59;;;6.60;49.08
62942;BME280;49042;47.318;19.874;2023-02-28T11:54:07;101599.97;;;6.51;49.09
62942;BME280;49042;47.318;19.874;2023-02-28T12:04:34;101587.50;;;6.46;49.52
62942;BME280;49042;47.318;19.874;2023-02-28T12:11:18;101583.94;;;5.92;51.07
62942;BME280;49042;47.318;19.874;2023-02-28T12:27:31;101552.63;;;7.37;48.47
62942;BME280;49042;47.318;19.874;2023-02-28T12:30:37;101561.59;;;7.71;47.04
62942;BME280;49042;47.318;19.874;2023-02-28T12:33:48;101561.34;;;7.11;47.26
62942;BME280;49042;47.318;19.874;2023-02-28T12:36:53;101563.62;;;5.98;50.92
62942;BME280;49042;47.318;19.874;2023-02-28T12:40:09;101550.78;;;7.07;49.06
62942;BME280;49042;47.318;19.874;2023-02-28T12:43:14;101558.69;;;6.55;49.73
62942;BME280;49042;47.318;19.874;2023-02-28T12:46:21;101562.53;;;6.20;50.95
62942;BME280;49042;47.318;19.874;2023-02-28T12:49:30;101553.62;;;6.56;50.15
62942;BME280;49042;47.318;19.874;2023-02-28T12:59:48;101553.03;;;4.94;57.95
62942;BME280;49042;47.318;19.874;2023-02-28T13:09:56;101550.09;;;4.77;57.00
62942;BME280;49042;47.318;19.874;2023-02-28T13:13:03;101543.91;;;5.11;55.94
62942;BME280;49042;47.318;19.874;2023-02-28T13:16:08;101544.28;;;5.42;55.57
62942;BME280;49042;47.318;19.874;2023-02-28T13:19:11;101541.28;;;5.23;55.56
62942;BME280;49042;47.318;19.874;2023-02-28T13:35:13;101529.78;;;4.94;58.46
62942;BME280;49042;47.318;19.874;2023-02-28T13:38:22;101523.53;;;5.54;56.09
62942;BME280;49042;47.318;19.874;2023-02-28T13:48:15;101524.81;;;4.13;60.89
62942;BME280;49042;47.318;19.874;2023-02-28T13:51:47;101523.69;;;4.09;61.75
62942;BME280;49042;47.318;19.874;2023-02-28T14:08:21;101518.19;;;4.28;62.95
62942;BME280;49042;47.318;19.874;2023-02-28T14:11:36;101514.38;;;4.23;64.61
62942;BME280;49042;47.318;19.874;2023-02-28T14:17:40;101503.56;;;4.05;65.48
62942;BME280;49042;47.318;19.874;2023-02-28T14:20:43;101503.56;;;4.05;65.05
62942;BME280;49042;47.318;19.874;2023-02-28T14:27:03;101503.19;;;3.88;66.11
62942;BME280;49042;47.318;19.874;2023-02-28T14:34:04;101505.75;;;3.76;66.55
62942;BME280;49042;47.318;19.874;2023-02-28T14:37:13;101509.19;;;3.99;66.11
62942;BME280;49042;47.318;19.874;2023-02-28T14:40:37;101493.41;;;3.84;66.39
62942;BME280;49042;47.318;19.874;2023-02-28T14:43:55;101497.22;;;3.89;67.08
62942;BME280;49042;47.318;19.874;2023-02-28T14:47:00;101499.50;;;3.84;66.73
62942;BME280;49042;47.318;19.874;2023-02-28T14:50:21;101501.53;;;3.89;66.58
62942;BME280;49042;47.318;19.874;2023-02-28T14:53:27;101502.38;;;3.77;66.86
62942;BME280;49042;47.318;19.874;2023-02-28T14:56:36;101498.84;;;3.99;66.91
62942;BME280;49042;47.318;19.874;2023-02-28T14:59:38;101487.84;;;3.55;68.61
62942;BME280;49042;47.318;19.874;2023-02-28T15:02:40;101492.06;;;3.89;67.73
62942;BME280;49042;47.318;19.874;2023-02-28T15:05:57;101495.56;;;3.90;66.57
62942;BME280;49042;47.318;19.874;2023-02-28T15:09:18;101493.59;;;3.63;67.49
62942;BME280;49042;47.318;19.874;2023-02-28T15:12:20;101491.53;;;3.81;67.61
62942;BME280;49042;47.318;19.874;2023-02-28T15:15:25;101497.28;;;4.01;67.28
62942;BME280;49042;47.318;19.874;2023-02-28T15:22:08;101501.53;;;3.89;67.88
62942;BME280;49042;47.318;19.874;2023-02-28T15:25:15;101508.75;;;3.70;69.01
62942;BME280;49042;47.318;19.874;2023-02-28T15:28:21;101508.13;;;3.85;67.70
62942;BME280;49042;47.318;19.874;2023-02-28T15:31:37;101512.56;;;3.63;68.36
62942;BME280;49042;47.318;19.874;2023-02-28T15:34:58;101514.84;;;3.48;69.56
62942;BME280;49042;47.318;19.874;2023-02-28T15:38:04;101509.78;;;3.50;69.65
62942;BME280;49042;47.318;19.874;2023-02-28T15:44:28;101504.13;;;3.66;70.21
62942;BME280;49042;47.318;19.874;2023-02-28T15:47:35;101496.56;;;3.57;71.19
62942;BME280;49042;47.318;19.874;2023-02-28T15:50:38;101504.06;;;3.77;70.84
62942;BME280;49042;47.318;19.874;2023-02-28T15:54:00;101500.66;;;3.66;71.29
62942;BME280;49042;47.318;19.874;2023-02-28T15:57:06;101500.81;;;3.79;71.17
62942;BME280;49042;47.318;19.874;2023-02-28T16:00:15;101502.78;;;3.59;71.71
62942;BME280;49042;47.318;19.874;2023-02-28T16:03:27;101497.25;;;3.55;71.77
62942;BME280;49042;47.318;19.874;2023-02-28T16:09:38;101500.50;;;3.52;72.74
62942;BME280;49042;47.318;19.874;2023-02-28T16:12:40;101492.22;;;3.56;72.93
62942;BME280;49042;47.318;19.874;2023-02-28T16:15:43;101488.13;;;3.25;74.04
62942;BME280;49042;47.318;19.874;2023-02-28T16:18:45;101497.44;;;3.23;74.30
62942;BME280;49042;47.318;19.874;2023-02-28T16:21:48;101499.53;;;3.39;73.52
62942;BME280;49042;47.318;19.874;2023-02-28T16:24:50;101498.09;;;3.43;73.79
62942;BME280;49042;47.318;19.874;2023-02-28T16:27:53;101496.06;;;3.39;73.35
62942;BME280;49042;47.318;19.874;2023-02-28T16:30:55;101501.09;;;3.37;74.03
62942;BME280;49042;47.318;19.874;2023-02-28T16:33:57;101498.97;;;3.31;74.10
62942;BME280;49042;47.318;19.874;2023-02-28T16:36:59;101503.59;;;3.25;74.29
62942;BME280;49042;47.318;19.874;2023-02-28T16:40:01;101499.19;;;3.12;75.50
62942;BME280;49042;47.318;19.874;2023-02-28T16:43:16;101506.62;;;3.19;75.29
62942;BME280;49042;47.318;19.874;2023-02-28T16:46:20;101511.66;;;3.18;75.58
62942;BME280;49042;47.318;19.874;2023-02-28T16:49:22;101508.72;;;3.13;76.02
62942;BME280;49042;47.318;19.874;2023-02-28T16:52:26;101513.31;;;2.95;77.16
62942;BME280;49042;47.318;19.874;2023-02-28T16:55:27;101506.62;;;2.86;77.59
62942;BME280;49042;47.318;19.874;2023-02-28T16:58:30;101510.88;;;2.96;77.24
62942;BME280;49042;47.318;19.874;2023-02-28T17:01:32;101514.84;;;3.03;75.96
62942;BME280;49042;47.318;19.874;2023-02-28T17:04:35;101526.22;;;2.84;77.53
62942;BME280;49042;47.318;19.874;2023-02-28T17:07:37;101522.91;;;3.08;76.60
62942;BME280;49042;47.318;19.874;2023-02-28T17:10:39;101524.53;;;2.95;77.26
62942;BME280;49042;47.318;19.874;2023-02-28T17:13:41;101523.72;;;3.07;76.03
62942;BME280;49042;47.318;19.874;2023-02-28T17:16:43;101519.22;;;2.94;76.84
62942;BME280;49042;47.318;19.874;2023-02-28T17:19:45;101517.22;;;3.12;76.48
62942;BME280;49042;47.318;19.874;2023-02-28T17:22:49;101527.63;;;2.91;77.69
62942;BME280;49042;47.318;19.874;2023-02-28T17:25:51;101528.00;;;2.96;77.43
62942;BME280;49042;47.318;19.874;2023-02-28T17:28:58;101525.72;;;3.11;76.70
62942;BME280;49042;47.318;19.874;2023-02-28T17:32:00;101522.94;;;2.97;76.84
62942;BME280;49042;47.318;19.874;2023-02-28T17:35:17;101520.00;;;3.26;75.92
62942;BME280;49042;47.318;19.874;2023-02-28T17:38:20;101517.59;;;3.39;75.31
62942;BME280;49042;47.318;19.874;2023-02-28T17:41:24;101526.06;;;3.49;74.90
62942;BME280;49042;47.318;19.874;2023-02-28T17:44:28;101525.00;;;3.02;76.63
62942;BME280;49042;47.318;19.874;2023-02-28T17:47:30;101523.94;;;3.32;75.27
62942;BME280;49042;47.318;19.874;2023-02-28T17:50:32;101521.37;;;3.32;75.26
62942;BME280;49042;47.318;19.874;2023-02-28T17:53:35;101529.09;;;3.32;75.74
62942;BME280;49042;47.318;19.874;2023-02-28T17:56:37;101530.88;;;2.88;76.04
62942;BME280;49042;47.318;19.874;2023-02-28T17:59:39;101530.38;;;2.82;76.42
62942;BME280;49042;47.318;19.874;2023-02-28T18:02:43;101532.53;;;2.88;77.72
62942;BME280;49042;47.318;19.874;2023-02-28T18:05:47;101535.59;;;2.94;77.83
62942;BME280;49042;47.318;19.874;2023-02-28T18:08:53;101526.41;;;2.75;79.09
62942;BME280;49042;47.318;19.874;2023-02-28T18:11:57;101531.66;;;2.77;79.72
62942;BME280;49042;47.318;19.874;2023-02-28T18:15:00;101528.97;;;3.08;78.59
62942;BME280;49042;47.318;19.874;2023-02-28T18:18:03;101530.44;;;3.27;77.88
62942;BME280;49042;47.318;19.874;2023-02-28T18:21:08;101531.50;;;3.19;77.78
62942;BME280;49042;47.318;19.874;2023-02-28T18:24:11;101535.47;;;3.48;76.22
62942;BME280;49042;47.318;19.874;2023-02-28T18:27:14;101533.97;;;3.62;75.32
62942;BME280;49042;47.318;19.874;2023-02-28T18:30:16;101536.53;;;3.85;74.43
62942;BME280;49042;47.318;19.874;2023-02-28T18:33:19;101534.72;;;3.84;74.29
62942;BME280;49042;47.318;19.874;2023-02-28T18:36:22;101538.66;;;3.56;74.59